sensor_id;sensor_type;location;lat;lon;timestamp;P1;durP1;ratioP1;P2;durP2;ratioP2
24159;SDS011;62385;41.594;23.808;2023-09-07T00:00:48;7.60;;;4.80;;
24159;SDS011;62385;41.594;23.808;2023-09-07T00:03:15;6.30;;;3.95;;
24159;SDS011;62385;41.594;23.808;2023-09-07T00:05:41;7.40;;;5.20;;
24159;SDS011;62385;41.594;23.808;2023-09-07T00:08:08;6.40;;;4.45;;
24159;SDS011;62385;41.594;23.808;2023-09-07T00:10:33;7.68;;;4.78;;
24159;SDS011;62385;41.594;23.808;2023-09-07T00:13:02;7.07;;;4.65;;
24159;SDS011;62385;41.594;23.808;2023-09-07T00:15:29;5.90;;;4.45;;
24159;SDS011;62385;41.594;23.808;2023-09-07T00:17:55;7.70;;;5.32;;
24159;SDS011;62385;41.594;23.808;2023-09-07T00:20:21;5.95;;;4.65;;
24159;SDS011;62385;41.594;23.808;2023-09-07T00:22:49;5.28;;;4.05;;
24159;SDS011;62385;41.594;23.808;2023-09-07T00:25:15;10.52;;;4.65;;
24159;SDS011;62385;41.594;23.808;2023-09-07T00:27:41;7.18;;;4.30;;
24159;SDS011;62385;41.594;23.808;2023-09-07T00:30:06;6.60;;;4.68;;
24159;SDS011;62385;41.594;23.808;2023-09-07T00:32:37;7.57;;;4.82;;
24159;SDS011;62385;41.594;23.808;2023-09-07T00:35:04;6.90;;;4.63;;
24159;SDS011;62385;41.594;23.808;2023-09-07T00:37:30;6.28;;;4.57;;
24159;SDS011;62385;41.594;23.808;2023-09-07T00:39:56;5.97;;;4.40;;
24159;SDS011;62385;41.594;23.808;2023-09-07T00:42:22;6.22;;;4.65;;
24159;SDS011;62385;41.594;23.808;2023-09-07T00:44:47;5.35;;;4.50;;
24159;SDS011;62385;41.594;23.808;2023-09-07T00:47:13;15.57;;;5.30;;
24159;SDS011;62385;41.594;23.808;2023-09-07T00:49:42;6.88;;;5.40;;
24159;SDS011;62385;41.594;23.808;2023-09-07T00:52:09;7.53;;;5.60;;
24159;SDS011;62385;41.594;23.808;2023-09-07T00:54:36;9.43;;;5.30;;
24159;SDS011;62385;41.594;23.808;2023-09-07T00:57:05;13.52;;;5.80;;
24159;SDS011;62385;41.594;23.808;2023-09-07T00:59:32;7.35;;;4.82;;
24159;SDS011;62385;41.594;23.808;2023-09-07T01:01:58;6.20;;;4.85;;
24159;SDS011;62385;41.594;23.808;2023-09-07T01:04:24;8.00;;;4.55;;
24159;SDS011;62385;41.594;23.808;2023-09-07T01:06:52;6.72;;;4.32;;
24159;SDS011;62385;41.594;23.808;2023-09-07T01:09:36;7.28;;;4.47;;
24159;SDS011;62385;41.594;23.808;2023-09-07T01:12:05;9.05;;;4.65;;
24159;SDS011;62385;41.594;23.808;2023-09-07T01:14:36;6.18;;;4.55;;
24159;SDS011;62385;41.594;23.808;2023-09-07T01:17:03;6.43;;;4.32;;
24159;SDS011;62385;41.594;23.808;2023-09-07T01:19:30;8.15;;;4.22;;
24159;SDS011;62385;41.594;23.808;2023-09-07T01:21:56;6.00;;;4.40;;
24159;SDS011;62385;41.594;23.808;2023-09-07T01:24:22;5.18;;;4.03;;
24159;SDS011;62385;41.594;23.808;2023-09-07T01:26:49;5.68;;;4.40;;
24159;SDS011;62385;41.594;23.808;2023-09-07T01:29:16;8.73;;;4.55;;
24159;SDS011;62385;41.594;23.808;2023-09-07T01:31:42;5.82;;;4.72;;
24159;SDS011;62385;41.594;23.808;2023-09-07T01:34:08;5.70;;;4.40;;
24159;SDS011;62385;41.594;23.808;2023-09-07T01:36:34;4.13;;;3.72;;
24159;SDS011;62385;41.594;23.808;2023-09-07T01:39:01;6.90;;;4.63;;
24159;SDS011;62385;41.594;23.808;2023-09-07T01:41:28;5.47;;;3.67;;
24159;SDS011;62385;41.594;23.808;2023-09-07T01:43:55;9.32;;;4.72;;
24159;SDS011;62385;41.594;23.808;2023-09-07T01:46:21;5.57;;;4.65;;
24159;SDS011;62385;41.594;23.808;2023-09-07T01:48:47;4.10;;;3.70;;
24159;SDS011;62385;41.594;23.808;2023-09-07T01:51:13;5.97;;;4.03;;
24159;SDS011;62385;41.594;23.808;2023-09-07T01:53:40;6.78;;;5.22;;
24159;SDS011;62385;41.594;23.808;2023-09-07T01:56:05;6.88;;;4.13;;
24159;SDS011;62385;41.594;23.808;2023-09-07T01:58:32;6.10;;;4.32;;
24159;SDS011;62385;41.594;23.808;2023-09-07T02:00:59;5.47;;;3.45;;
24159;SDS011;62385;41.594;23.808;2023-09-07T02:03:26;7.10;;;4.72;;
24159;SDS011;62385;41.594;23.808;2023-09-07T02:05:52;7.55;;;3.45;;
24159;SDS011;62385;41.594;23.808;2023-09-07T02:08:18;6.22;;;4.32;;
24159;SDS011;62385;41.594;23.808;2023-09-07T02:10:44;5.70;;;4.35;;
24159;SDS011;62385;41.594;23.808;2023-09-07T02:13:09;6.13;;;4.65;;
24159;SDS011;62385;41.594;23.808;2023-09-07T02:15:39;5.93;;;4.20;;
24159;SDS011;62385;41.594;23.808;2023-09-07T02:18:06;6.82;;;4.10;;
24159;SDS011;62385;41.594;23.808;2023-09-07T02:20:32;8.02;;;4.20;;
24159;SDS011;62385;41.594;23.808;2023-09-07T02:22:58;5.25;;;3.40;;
24159;SDS011;62385;41.594;23.808;2023-09-07T02:25:24;8.88;;;3.80;;
24159;SDS011;62385;41.594;23.808;2023-09-07T02:27:50;5.47;;;3.95;;
24159;SDS011;62385;41.594;23.808;2023-09-07T02:30:15;8.40;;;4.50;;
24159;SDS011;62385;41.594;23.808;2023-09-07T02:32:42;6.47;;;4.18;;
24159;SDS011;62385;41.594;23.808;2023-09-07T02:35:08;5.40;;;3.10;;
24159;SDS011;62385;41.594;23.808;2023-09-07T02:37:38;7.07;;;4.00;;
24159;SDS011;62385;41.594;23.808;2023-09-07T02:40:03;7.82;;;3.80;;
24159;SDS011;62385;41.594;23.808;2023-09-07T02:42:34;4.75;;;3.83;;
24159;SDS011;62385;41.594;23.808;2023-09-07T02:44:59;5.18;;;3.28;;
24159;SDS011;62385;41.594;23.808;2023-09-07T02:47:25;5.35;;;3.90;;
24159;SDS011;62385;41.594;23.808;2023-09-07T02:49:50;5.00;;;3.80;;
24159;SDS011;62385;41.594;23.808;2023-09-07T02:52:16;8.93;;;3.30;;
24159;SDS011;62385;41.594;23.808;2023-09-07T02:54:42;5.80;;;3.50;;
24159;SDS011;62385;41.594;23.808;2023-09-07T02:57:07;6.70;;;3.97;;
24159;SDS011;62385;41.594;23.808;2023-09-07T02:59:33;5.22;;;3.72;;
24159;SDS011;62385;41.594;23.808;2023-09-07T03:01:59;4.47;;;3.55;;
24159;SDS011;62385;41.594;23.808;2023-09-07T03:04:25;6.35;;;3.72;;
24159;SDS011;62385;41.594;23.808;2023-09-07T03:06:51;5.68;;;3.65;;
24159;SDS011;62385;41.594;23.808;2023-09-07T03:09:17;4.82;;;3.75;;
24159;SDS011;62385;41.594;23.808;2023-09-07T03:11:43;3.63;;;2.63;;
24159;SDS011;62385;41.594;23.808;2023-09-07T03:14:09;5.70;;;3.40;;
24159;SDS011;62385;41.594;23.808;2023-09-07T03:16:34;5.13;;;3.17;;
24159;SDS011;62385;41.594;23.808;2023-09-07T03:19:00;4.13;;;3.20;;
24159;SDS011;62385;41.594;23.808;2023-09-07T03:21:26;4.05;;;3.08;;
24159;SDS011;62385;41.594;23.808;2023-09-07T03:23:56;5.38;;;3.38;;
24159;SDS011;62385;41.594;23.808;2023-09-07T03:26:22;4.32;;;3.55;;
24159;SDS011;62385;41.594;23.808;2023-09-07T03:28:47;5.57;;;3.75;;
24159;SDS011;62385;41.594;23.808;2023-09-07T03:31:13;4.78;;;3.50;;
24159;SDS011;62385;41.594;23.808;2023-09-07T03:33:38;10.90;;;4.00;;
24159;SDS011;62385;41.594;23.808;2023-09-07T03:36:04;5.75;;;3.70;;
24159;SDS011;62385;41.594;23.808;2023-09-07T03:38:30;5.32;;;3.58;;
24159;SDS011;62385;41.594;23.808;2023-09-07T03:40:55;9.27;;;3.90;;
24159;SDS011;62385;41.594;23.808;2023-09-07T03:43:21;5.75;;;3.33;;
24159;SDS011;62385;41.594;23.808;2023-09-07T03:45:47;5.05;;;3.33;;
24159;SDS011;62385;41.594;23.808;2023-09-07T03:48:13;10.55;;;3.33;;
24159;SDS011;62385;41.594;23.808;2023-09-07T03:50:39;5.80;;;3.42;;
24159;SDS011;62385;41.594;23.808;2023-09-07T03:53:04;4.78;;;3.03;;
24159;SDS011;62385;41.594;23.808;2023-09-07T03:55:30;5.63;;;3.17;;
24159;SDS011;62385;41.594;23.808;2023-09-07T03:58:05;5.47;;;2.85;;
24159;SDS011;62385;41.594;23.808;2023-09-07T04:00:31;3.83;;;2.90;;
24159;SDS011;62385;41.594;23.808;2023-09-07T04:02:57;4.95;;;3.00;;
24159;SDS011;62385;41.594;23.808;2023-09-07T04:05:22;5.70;;;3.65;;
24159;SDS011;62385;41.594;23.808;2023-09-07T04:07:50;3.75;;;2.75;;
24159;SDS011;62385;41.594;23.808;2023-09-07T04:10:15;5.15;;;2.60;;
24159;SDS011;62385;41.594;23.808;2023-09-07T04:12:41;12.70;;;2.85;;
24159;SDS011;62385;41.594;23.808;2023-09-07T04:15:08;4.95;;;3.33;;
24159;SDS011;62385;41.594;23.808;2023-09-07T04:17:35;5.00;;;2.20;;
24159;SDS011;62385;41.594;23.808;2023-09-07T04:20:07;4.07;;;2.55;;
24159;SDS011;62385;41.594;23.808;2023-09-07T04:22:34;3.80;;;3.10;;
24159;SDS011;62385;41.594;23.808;2023-09-07T04:25:01;5.50;;;2.78;;
24159;SDS011;62385;41.594;23.808;2023-09-07T04:27:26;3.05;;;2.22;;
24159;SDS011;62385;41.594;23.808;2023-09-07T04:29:52;3.30;;;2.55;;
24159;SDS011;62385;41.594;23.808;2023-09-07T04:32:19;4.93;;;2.60;;
24159;SDS011;62385;41.594;23.808;2023-09-07T04:34:44;3.92;;;2.20;;
24159;SDS011;62385;41.594;23.808;2023-09-07T04:37:11;3.72;;;2.58;;
24159;SDS011;62385;41.594;23.808;2023-09-07T04:39:38;9.45;;;3.08;;
24159;SDS011;62385;41.594;23.808;2023-09-07T04:42:05;3.38;;;2.55;;
24159;SDS011;62385;41.594;23.808;2023-09-07T04:44:31;3.17;;;2.15;;
24159;SDS011;62385;41.594;23.808;2023-09-07T04:46:56;4.03;;;2.65;;
24159;SDS011;62385;41.594;23.808;2023-09-07T04:49:23;6.50;;;3.20;;
24159;SDS011;62385;41.594;23.808;2023-09-07T04:51:49;2.92;;;2.25;;
24159;SDS011;62385;41.594;23.808;2023-09-07T04:54:20;4.20;;;3.03;;
24159;SDS011;62385;41.594;23.808;2023-09-07T04:56:45;3.60;;;2.78;;
24159;SDS011;62385;41.594;23.808;2023-09-07T04:59:11;4.07;;;2.72;;
24159;SDS011;62385;41.594;23.808;2023-09-07T05:01:36;3.67;;;1.85;;
24159;SDS011;62385;41.594;23.808;2023-09-07T05:04:02;2.70;;;2.03;;
24159;SDS011;62385;41.594;23.808;2023-09-07T05:06:29;2.97;;;2.25;;
24159;SDS011;62385;41.594;23.808;2023-09-07T05:08:55;3.70;;;2.55;;
24159;SDS011;62385;41.594;23.808;2023-09-07T05:11:21;4.18;;;2.58;;
24159;SDS011;62385;41.594;23.808;2023-09-07T05:13:47;3.90;;;2.80;;
24159;SDS011;62385;41.594;23.808;2023-09-07T05:16:13;5.72;;;2.70;;
24159;SDS011;62385;41.594;23.808;2023-09-07T05:18:57;4.22;;;2.70;;
24159;SDS011;62385;41.594;23.808;2023-09-07T05:21:23;2.80;;;2.30;;
24159;SDS011;62385;41.594;23.808;2023-09-07T05:23:50;3.72;;;2.20;;
24159;SDS011;62385;41.594;23.808;2023-09-07T05:26:20;4.47;;;2.38;;
24159;SDS011;62385;41.594;23.808;2023-09-07T05:28:46;6.00;;;2.83;;
24159;SDS011;62385;41.594;23.808;2023-09-07T05:31:13;10.52;;;1.98;;
24159;SDS011;62385;41.594;23.808;2023-09-07T05:33:39;4.93;;;2.33;;
24159;SDS011;62385;41.594;23.808;2023-09-07T05:36:04;4.20;;;2.95;;
24159;SDS011;62385;41.594;23.808;2023-09-07T05:38:30;2.80;;;1.77;;
24159;SDS011;62385;41.594;23.808;2023-09-07T05:40:56;2.10;;;1.63;;
24159;SDS011;62385;41.594;23.808;2023-09-07T05:43:23;3.38;;;2.20;;
24159;SDS011;62385;41.594;23.808;2023-09-07T05:45:49;3.50;;;2.00;;
24159;SDS011;62385;41.594;23.808;2023-09-07T05:48:15;7.63;;;1.65;;
24159;SDS011;62385;41.594;23.808;2023-09-07T05:50:45;2.30;;;1.77;;
24159;SDS011;62385;41.594;23.808;2023-09-07T05:53:30;3.03;;;1.63;;
24159;SDS011;62385;41.594;23.808;2023-09-07T05:55:55;4.07;;;1.83;;
24159;SDS011;62385;41.594;23.808;2023-09-07T05:58:21;3.03;;;1.98;;
24159;SDS011;62385;41.594;23.808;2023-09-07T06:00:47;2.17;;;1.88;;
24159;SDS011;62385;41.594;23.808;2023-09-07T06:03:12;1.92;;;1.30;;
24159;SDS011;62385;41.594;23.808;2023-09-07T06:05:39;3.85;;;2.13;;
24159;SDS011;62385;41.594;23.808;2023-09-07T06:08:07;2.28;;;1.58;;
24159;SDS011;62385;41.594;23.808;2023-09-07T06:10:33;4.80;;;1.95;;
24159;SDS011;62385;41.594;23.808;2023-09-07T06:12:59;2.95;;;1.45;;
24159;SDS011;62385;41.594;23.808;2023-09-07T06:15:25;2.25;;;1.67;;
24159;SDS011;62385;41.594;23.808;2023-09-07T06:17:53;1.63;;;1.13;;
24159;SDS011;62385;41.594;23.808;2023-09-07T06:20:20;2.72;;;1.48;;
24159;SDS011;62385;41.594;23.808;2023-09-07T06:22:45;2.53;;;1.40;;
24159;SDS011;62385;41.594;23.808;2023-09-07T06:25:12;1.75;;;1.00;;
24159;SDS011;62385;41.594;23.808;2023-09-07T06:27:37;2.22;;;1.50;;
24159;SDS011;62385;41.594;23.808;2023-09-07T06:30:21;1.85;;;1.35;;
24159;SDS011;62385;41.594;23.808;2023-09-07T06:32:47;1.88;;;1.10;;
24159;SDS011;62385;41.594;23.808;2023-09-07T06:35:14;1.77;;;1.20;;
24159;SDS011;62385;41.594;23.808;2023-09-07T06:37:40;1.88;;;1.50;;
24159;SDS011;62385;41.594;23.808;2023-09-07T06:40:10;2.95;;;1.48;;
24159;SDS011;62385;41.594;23.808;2023-09-07T06:42:36;2.25;;;1.65;;
24159;SDS011;62385;41.594;23.808;2023-09-07T06:45:06;11.38;;;1.27;;
24159;SDS011;62385;41.594;23.808;2023-09-07T06:47:32;2.97;;;1.58;;
24159;SDS011;62385;41.594;23.808;2023-09-07T06:49:59;4.55;;;1.80;;
24159;SDS011;62385;41.594;23.808;2023-09-07T06:52:26;4.20;;;1.40;;
24159;SDS011;62385;41.594;23.808;2023-09-07T06:54:55;2.00;;;1.30;;
24159;SDS011;62385;41.594;23.808;2023-09-07T06:57:21;2.03;;;1.42;;
24159;SDS011;62385;41.594;23.808;2023-09-07T06:59:47;1.80;;;1.10;;
24159;SDS011;62385;41.594;23.808;2023-09-07T07:02:14;2.15;;;1.60;;
24159;SDS011;62385;41.594;23.808;2023-09-07T07:04:40;5.75;;;1.40;;
24159;SDS011;62385;41.594;23.808;2023-09-07T07:07:06;2.78;;;1.35;;
24159;SDS011;62385;41.594;23.808;2023-09-07T07:09:31;1.60;;;1.10;;
24159;SDS011;62385;41.594;23.808;2023-09-07T07:11:59;1.33;;;0.90;;
24159;SDS011;62385;41.594;23.808;2023-09-07T07:14:28;1.95;;;1.17;;
24159;SDS011;62385;41.594;23.808;2023-09-07T07:16:54;2.67;;;1.30;;
24159;SDS011;62385;41.594;23.808;2023-09-07T07:19:20;1.70;;;1.38;;
24159;SDS011;62385;41.594;23.808;2023-09-07T07:21:46;2.00;;;1.48;;
24159;SDS011;62385;41.594;23.808;2023-09-07T07:24:12;2.17;;;1.48;;
24159;SDS011;62385;41.594;23.808;2023-09-07T07:26:38;1.73;;;1.23;;
24159;SDS011;62385;41.594;23.808;2023-09-07T07:29:04;1.27;;;0.95;;
24159;SDS011;62385;41.594;23.808;2023-09-07T07:31:30;3.17;;;1.15;;
24159;SDS011;62385;41.594;23.808;2023-09-07T07:33:55;1.83;;;1.48;;
24159;SDS011;62385;41.594;23.808;2023-09-07T07:36:21;1.42;;;1.23;;
24159;SDS011;62385;41.594;23.808;2023-09-07T07:38:47;2.22;;;1.80;;
24159;SDS011;62385;41.594;23.808;2023-09-07T07:41:13;1.52;;;1.42;;
24159;SDS011;62385;41.594;23.808;2023-09-07T07:43:39;1.55;;;1.30;;
24159;SDS011;62385;41.594;23.808;2023-09-07T07:46:05;4.07;;;1.90;;
24159;SDS011;62385;41.594;23.808;2023-09-07T07:48:33;2.05;;;1.10;;
24159;SDS011;62385;41.594;23.808;2023-09-07T07:51:04;8.50;;;1.52;;
24159;SDS011;62385;41.594;23.808;2023-09-07T07:53:31;2.03;;;1.33;;
24159;SDS011;62385;41.594;23.808;2023-09-07T07:55:57;2.67;;;1.20;;
24159;SDS011;62385;41.594;23.808;2023-09-07T07:58:24;1.73;;;1.08;;
24159;SDS011;62385;41.594;23.808;2023-09-07T08:00:50;1.10;;;1.00;;
24159;SDS011;62385;41.594;23.808;2023-09-07T08:03:20;2.15;;;1.25;;
24159;SDS011;62385;41.594;23.808;2023-09-07T08:05:46;1.30;;;1.17;;
24159;SDS011;62385;41.594;23.808;2023-09-07T08:08:13;2.45;;;1.20;;
24159;SDS011;62385;41.594;23.808;2023-09-07T08:10:40;2.47;;;1.20;;
24159;SDS011;62385;41.594;23.808;2023-09-07T08:13:08;3.38;;;1.33;;
24159;SDS011;62385;41.594;23.808;2023-09-07T08:15:34;1.73;;;1.25;;
24159;SDS011;62385;41.594;23.808;2023-09-07T08:18:01;1.58;;;1.17;;
24159;SDS011;62385;41.594;23.808;2023-09-07T08:20:27;3.38;;;1.02;;
24159;SDS011;62385;41.594;23.808;2023-09-07T08:22:55;1.58;;;1.38;;
24159;SDS011;62385;41.594;23.808;2023-09-07T08:25:21;2.08;;;1.25;;
24159;SDS011;62385;41.594;23.808;2023-09-07T08:27:47;3.30;;;1.52;;
24159;SDS011;62385;41.594;23.808;2023-09-07T08:30:14;2.25;;;1.55;;
24159;SDS011;62385;41.594;23.808;2023-09-07T08:32:42;3.85;;;1.00;;
24159;SDS011;62385;41.594;23.808;2023-09-07T08:35:09;2.60;;;1.48;;
24159;SDS011;62385;41.594;23.808;2023-09-07T08:37:37;3.47;;;1.10;;
24159;SDS011;62385;41.594;23.808;2023-09-07T08:40:04;1.10;;;0.93;;
24159;SDS011;62385;41.594;23.808;2023-09-07T08:42:32;2.25;;;1.42;;
24159;SDS011;62385;41.594;23.808;2023-09-07T08:44:57;5.15;;;1.55;;
24159;SDS011;62385;41.594;23.808;2023-09-07T08:47:29;4.88;;;1.40;;
24159;SDS011;62385;41.594;23.808;2023-09-07T08:49:56;4.03;;;1.40;;
24159;SDS011;62385;41.594;23.808;2023-09-07T08:52:23;1.20;;;1.10;;
24159;SDS011;62385;41.594;23.808;2023-09-07T08:54:48;0.90;;;0.90;;
24159;SDS011;62385;41.594;23.808;2023-09-07T08:57:17;1.30;;;1.15;;
24159;SDS011;62385;41.594;23.808;2023-09-07T08:59:44;2.42;;;1.45;;
24159;SDS011;62385;41.594;23.808;2023-09-07T09:02:10;1.52;;;1.20;;
24159;SDS011;62385;41.594;23.808;2023-09-07T09:04:36;1.88;;;1.15;;
24159;SDS011;62385;41.594;23.808;2023-09-07T09:07:02;2.42;;;1.58;;
24159;SDS011;62385;41.594;23.808;2023-09-07T09:09:29;1.65;;;1.30;;
24159;SDS011;62385;41.594;23.808;2023-09-07T09:12:06;1.33;;;1.23;;
24159;SDS011;62385;41.594;23.808;2023-09-07T09:14:35;2.17;;;1.13;;
24159;SDS011;62385;41.594;23.808;2023-09-07T09:17:01;2.25;;;1.60;;
24159;SDS011;62385;41.594;23.808;2023-09-07T09:19:33;1.40;;;1.17;;
24159;SDS011;62385;41.594;23.808;2023-09-07T09:22:00;3.70;;;1.98;;
24159;SDS011;62385;41.594;23.808;2023-09-07T09:24:26;1.45;;;0.90;;
24159;SDS011;62385;41.594;23.808;2023-09-07T09:26:52;3.80;;;1.20;;
24159;SDS011;62385;41.594;23.808;2023-09-07T09:29:21;1.27;;;1.00;;
24159;SDS011;62385;41.594;23.808;2023-09-07T09:31:48;1.80;;;1.35;;
24159;SDS011;62385;41.594;23.808;2023-09-07T09:34:14;1.95;;;1.35;;
24159;SDS011;62385;41.594;23.808;2023-09-07T09:36:41;1.92;;;1.48;;
24159;SDS011;62385;41.594;23.808;2023-09-07T09:39:07;6.20;;;1.35;;
24159;SDS011;62385;41.594;23.808;2023-09-07T09:41:34;0.95;;;0.90;;
24159;SDS011;62385;41.594;23.808;2023-09-07T09:44:01;1.95;;;1.08;;
24159;SDS011;62385;41.594;23.808;2023-09-07T09:46:28;3.13;;;1.40;;
24159;SDS011;62385;41.594;23.808;2023-09-07T09:48:57;4.00;;;1.55;;
24159;SDS011;62385;41.594;23.808;2023-09-07T09:51:23;2.30;;;1.35;;
24159;SDS011;62385;41.594;23.808;2023-09-07T09:53:49;1.48;;;1.20;;
24159;SDS011;62385;41.594;23.808;2023-09-07T09:56:15;2.58;;;1.65;;
24159;SDS011;62385;41.594;23.808;2023-09-07T09:58:42;1.52;;;1.30;;
24159;SDS011;62385;41.594;23.808;2023-09-07T10:01:09;1.92;;;1.23;;
24159;SDS011;62385;41.594;23.808;2023-09-07T10:03:40;1.55;;;1.20;;
24159;SDS011;62385;41.594;23.808;2023-09-07T10:06:11;2.65;;;1.48;;
24159;SDS011;62385;41.594;23.808;2023-09-07T10:08:52;1.45;;;1.30;;
24159;SDS011;62385;41.594;23.808;2023-09-07T10:11:42;1.83;;;1.40;;
24159;SDS011;62385;41.594;23.808;2023-09-07T10:14:08;3.55;;;1.40;;
24159;SDS011;62385;41.594;23.808;2023-09-07T10:16:46;1.92;;;1.30;;
24159;SDS011;62385;41.594;23.808;2023-09-07T10:19:19;3.08;;;1.38;;
24159;SDS011;62385;41.594;23.808;2023-09-07T10:21:46;4.80;;;1.38;;
24159;SDS011;62385;41.594;23.808;2023-09-07T10:24:23;1.90;;;1.67;;
24159;SDS011;62385;41.594;23.808;2023-09-07T10:26:58;3.35;;;2.50;;
24159;SDS011;62385;41.594;23.808;2023-09-07T10:29:42;2.92;;;1.75;;
24159;SDS011;62385;41.594;23.808;2023-09-07T10:32:09;1.88;;;1.20;;
24159;SDS011;62385;41.594;23.808;2023-09-07T10:34:37;1.98;;;1.42;;
24159;SDS011;62385;41.594;23.808;2023-09-07T10:37:05;7.25;;;2.38;;
24159;SDS011;62385;41.594;23.808;2023-09-07T10:39:35;5.70;;;2.60;;
24159;SDS011;62385;41.594;23.808;2023-09-07T10:42:02;4.18;;;1.90;;
24159;SDS011;62385;41.594;23.808;2023-09-07T10:44:28;2.80;;;1.83;;
24159;SDS011;62385;41.594;23.808;2023-09-07T10:46:54;3.30;;;1.85;;
24159;SDS011;62385;41.594;23.808;2023-09-07T10:49:23;2.00;;;1.15;;
24159;SDS011;62385;41.594;23.808;2023-09-07T10:51:49;1.95;;;1.50;;
24159;SDS011;62385;41.594;23.808;2023-09-07T10:54:33;2.35;;;1.67;;
24159;SDS011;62385;41.594;23.808;2023-09-07T10:57:07;4.70;;;1.92;;
24159;SDS011;62385;41.594;23.808;2023-09-07T10:59:36;4.28;;;2.28;;
24159;SDS011;62385;41.594;23.808;2023-09-07T11:02:05;2.72;;;2.17;;
24159;SDS011;62385;41.594;23.808;2023-09-07T11:04:31;1.73;;;1.30;;
24159;SDS011;62385;41.594;23.808;2023-09-07T11:06:57;1.40;;;1.30;;
24159;SDS011;62385;41.594;23.808;2023-09-07T11:09:23;4.18;;;2.10;;
24159;SDS011;62385;41.594;23.808;2023-09-07T11:11:48;1.52;;;1.40;;
24159;SDS011;62385;41.594;23.808;2023-09-07T11:14:14;6.05;;;1.95;;
24159;SDS011;62385;41.594;23.808;2023-09-07T11:16:40;1.85;;;1.40;;
24159;SDS011;62385;41.594;23.808;2023-09-07T11:19:06;3.40;;;1.83;;
24159;SDS011;62385;41.594;23.808;2023-09-07T11:21:36;6.30;;;1.67;;
24159;SDS011;62385;41.594;23.808;2023-09-07T11:24:02;1.35;;;1.15;;
24159;SDS011;62385;41.594;23.808;2023-09-07T11:26:40;3.03;;;1.67;;
24159;SDS011;62385;41.594;23.808;2023-09-07T11:29:08;2.25;;;1.48;;
24159;SDS011;62385;41.594;23.808;2023-09-07T11:31:33;2.30;;;1.75;;
24159;SDS011;62385;41.594;23.808;2023-09-07T11:33:59;2.05;;;1.85;;
24159;SDS011;62385;41.594;23.808;2023-09-07T11:36:24;2.33;;;1.88;;
24159;SDS011;62385;41.594;23.808;2023-09-07T11:38:51;2.08;;;1.73;;
24159;SDS011;62385;41.594;23.808;2023-09-07T11:41:17;2.22;;;1.90;;
24159;SDS011;62385;41.594;23.808;2023-09-07T11:43:42;2.45;;;1.52;;
24159;SDS011;62385;41.594;23.808;2023-09-07T11:46:10;2.42;;;1.98;;
24159;SDS011;62385;41.594;23.808;2023-09-07T11:48:35;2.38;;;1.75;;
24159;SDS011;62385;41.594;23.808;2023-09-07T11:51:01;2.88;;;2.15;;
24159;SDS011;62385;41.594;23.808;2023-09-07T11:53:27;2.58;;;2.17;;
24159;SDS011;62385;41.594;23.808;2023-09-07T11:55:52;2.17;;;1.92;;
24159;SDS011;62385;41.594;23.808;2023-09-07T11:58:18;3.10;;;2.40;;
24159;SDS011;62385;41.594;23.808;2023-09-07T12:00:44;2.42;;;1.75;;
24159;SDS011;62385;41.594;23.808;2023-09-07T12:03:10;2.83;;;2.22;;
24159;SDS011;62385;41.594;23.808;2023-09-07T12:05:35;1.63;;;1.50;;
24159;SDS011;62385;41.594;23.808;2023-09-07T12:08:02;3.75;;;2.30;;
24159;SDS011;62385;41.594;23.808;2023-09-07T12:10:29;2.03;;;1.55;;
24159;SDS011;62385;41.594;23.808;2023-09-07T12:12:54;2.63;;;1.70;;
24159;SDS011;62385;41.594;23.808;2023-09-07T12:15:20;2.67;;;2.00;;
24159;SDS011;62385;41.594;23.808;2023-09-07T12:17:45;3.78;;;2.17;;
24159;SDS011;62385;41.594;23.808;2023-09-07T12:20:11;2.50;;;1.85;;
24159;SDS011;62385;41.594;23.808;2023-09-07T12:22:39;3.03;;;2.17;;
24159;SDS011;62385;41.594;23.808;2023-09-07T12:25:06;2.28;;;2.05;;
24159;SDS011;62385;41.594;23.808;2023-09-07T12:27:35;2.53;;;1.83;;
24159;SDS011;62385;41.594;23.808;2023-09-07T12:30:00;3.08;;;1.85;;
24159;SDS011;62385;41.594;23.808;2023-09-07T12:32:27;2.10;;;1.85;;
24159;SDS011;62385;41.594;23.808;2023-09-07T12:34:53;2.45;;;2.08;;
24159;SDS011;62385;41.594;23.808;2023-09-07T12:37:19;3.00;;;1.83;;
24159;SDS011;62385;41.594;23.808;2023-09-07T12:39:48;3.05;;;2.40;;
24159;SDS011;62385;41.594;23.808;2023-09-07T12:42:17;1.92;;;1.58;;
24159;SDS011;62385;41.594;23.808;2023-09-07T12:44:43;3.20;;;2.10;;
24159;SDS011;62385;41.594;23.808;2023-09-07T12:47:10;5.05;;;2.90;;
24159;SDS011;62385;41.594;23.808;2023-09-07T12:49:35;2.78;;;2.30;;
24159;SDS011;62385;41.594;23.808;2023-09-07T12:52:01;4.15;;;3.00;;
24159;SDS011;62385;41.594;23.808;2023-09-07T12:54:33;4.10;;;2.92;;
24159;SDS011;62385;41.594;23.808;2023-09-07T12:56:59;3.45;;;2.20;;
24159;SDS011;62385;41.594;23.808;2023-09-07T12:59:24;2.55;;;1.98;;
24159;SDS011;62385;41.594;23.808;2023-09-07T13:01:50;4.65;;;2.35;;
24159;SDS011;62385;41.594;23.808;2023-09-07T13:04:16;8.30;;;2.67;;
24159;SDS011;62385;41.594;23.808;2023-09-07T13:06:41;4.43;;;2.50;;
24159;SDS011;62385;41.594;23.808;2023-09-07T13:09:07;3.38;;;2.67;;
24159;SDS011;62385;41.594;23.808;2023-09-07T13:11:34;3.90;;;2.40;;
24159;SDS011;62385;41.594;23.808;2023-09-07T13:14:00;3.67;;;2.80;;
24159;SDS011;62385;41.594;23.808;2023-09-07T13:16:26;2.72;;;2.17;;
24159;SDS011;62385;41.594;23.808;2023-09-07T13:18:53;4.00;;;3.00;;
24159;SDS011;62385;41.594;23.808;2023-09-07T13:21:19;4.13;;;2.30;;
24159;SDS011;62385;41.594;23.808;2023-09-07T13:23:44;5.47;;;3.50;;
24159;SDS011;62385;41.594;23.808;2023-09-07T13:26:11;4.78;;;2.92;;
24159;SDS011;62385;41.594;23.808;2023-09-07T13:28:38;6.90;;;2.15;;
24159;SDS011;62385;41.594;23.808;2023-09-07T13:31:03;2.58;;;2.35;;
24159;SDS011;62385;41.594;23.808;2023-09-07T13:33:29;6.32;;;2.70;;
24159;SDS011;62385;41.594;23.808;2023-09-07T13:35:55;2.45;;;2.00;;
24159;SDS011;62385;41.594;23.808;2023-09-07T13:38:20;2.47;;;1.92;;
24159;SDS011;62385;41.594;23.808;2023-09-07T13:40:46;3.33;;;2.35;;
24159;SDS011;62385;41.594;23.808;2023-09-07T13:43:12;4.63;;;2.63;;
24159;SDS011;62385;41.594;23.808;2023-09-07T13:45:38;4.63;;;1.85;;
24159;SDS011;62385;41.594;23.808;2023-09-07T13:48:04;3.13;;;2.28;;
24159;SDS011;62385;41.594;23.808;2023-09-07T13:50:29;2.72;;;2.13;;
24159;SDS011;62385;41.594;23.808;2023-09-07T13:52:56;6.35;;;2.28;;
24159;SDS011;62385;41.594;23.808;2023-09-07T13:55:22;5.82;;;2.42;;
24159;SDS011;62385;41.594;23.808;2023-09-07T13:57:49;2.70;;;1.95;;
24159;SDS011;62385;41.594;23.808;2023-09-07T14:00:15;2.80;;;2.50;;
24159;SDS011;62385;41.594;23.808;2023-09-07T14:02:40;2.88;;;1.85;;
24159;SDS011;62385;41.594;23.808;2023-09-07T14:05:06;2.90;;;2.45;;
24159;SDS011;62385;41.594;23.808;2023-09-07T14:07:33;4.18;;;2.00;;
24159;SDS011;62385;41.594;23.808;2023-09-07T14:09:59;5.72;;;1.67;;
24159;SDS011;62385;41.594;23.808;2023-09-07T14:12:26;3.65;;;2.25;;
24159;SDS011;62385;41.594;23.808;2023-09-07T14:14:52;4.28;;;2.88;;
24159;SDS011;62385;41.594;23.808;2023-09-07T14:17:17;3.88;;;2.83;;
24159;SDS011;62385;41.594;23.808;2023-09-07T14:19:43;4.68;;;3.25;;
24159;SDS011;62385;41.594;23.808;2023-09-07T14:22:11;4.38;;;3.00;;
24159;SDS011;62385;41.594;23.808;2023-09-07T14:24:37;2.65;;;2.13;;
24159;SDS011;62385;41.594;23.808;2023-09-07T14:27:02;4.13;;;3.00;;
24159;SDS011;62385;41.594;23.808;2023-09-07T14:29:28;3.67;;;2.63;;
24159;SDS011;62385;41.594;23.808;2023-09-07T14:31:54;2.85;;;2.17;;